Carrier Princess — CZ3582 — position and weather

sailwx.info

Track history (hours):
 
Tides and Currents Weather Stations Pressure Air Temp Water Temp Dewpoint Dewpoint Depression Visibility Wind Speed Wind Dir Waves Ship Positions

Carrier Princess

Last reported at 2016-May-26 00:33 UTC. Time now 2016-May-26 00:43 UTC.
Position N 48°49' W 123°21'.

Length 112 m; draft 3 m.

Type: Cargo ship. MMSI: 316003656.

Date/timePositionNaut miles runAvg speedWind from/ knotsBaromVisibWave heightAir tempDewpointWater temp
2016-May-26 00:33N 48°49' W 123°21'1212.0
2016-May-25 23:33N 49°01' W 123°19'1211.9
2016-May-25 22:33N 49°07' W 123°04'2 1.9
2016-May-25 21:33N 49°09' W 123°02'1 0.9
2016-May-25 20:33N 49°08' W 123°03'9 8.9
2016-May-25 19:33N 49°07' W 123°17'1313.2
2016-May-25 18:34N 49°10' W 123°36'1312.6
2016-May-25 17:33N 49°10' W 123°56'0 0.1
2016-May-25 16:16N 49°10' W 123°56'0 0.0
2016-May-25 14:20N 49°10' W 123°56'0 0.0
2016-May-25 12:32N 49°10' W 123°56'4 1.9
2016-May-25 10:33N 49°13' W 123°52'1313.4
2016-May-25 09:33N 49°10' W 123°32'1212.2
2016-May-25 08:33N 49°08' W 123°13'7 7.3
2016-May-25 07:33N 49°09' W 123°02'0 0.0
2016-May-25 06:33N 49°09' W 123°02'9 9.1
2016-May-25 05:33N 49°07' W 123°16'1111.1
2016-May-25 04:33N 48°56' W 123°18'1211.9
2016-May-25 03:33N 48°45' W 123°23'4 1.6
2016-May-25 01:16N 48°41' W 123°24'810.9
2016-May-25 00:33N 48°49' W 123°21'1111.3
2016-May-24 23:33N 48°60' W 123°19'1010.3
2016-May-24 22:34N 49°07' W 123°07'4 3.9
2016-May-24 21:33N 49°09' W 123°02'0 0.0
2016-May-24 20:33N 49°09' W 123°02'0 0.0
2016-May-24 19:33N 49°09' W 123°02'0 0.0
2016-May-24 18:34N 49°09' W 123°02'0 0.0
2016-May-24 17:33N 49°09' W 123°02'0 0.0
2016-May-24 16:33N 49°09' W 123°02'0 0.0
2016-May-24 15:33N 49°09' W 123°02'0 0.0
2016-May-24 14:34N 49°09' W 123°02'0 0.0
2016-May-24 13:33N 49°09' W 123°02'0 0.0
2016-May-24 12:33N 49°09' W 123°02'0 0.0
2016-May-24 11:34N 49°09' W 123°02'0 0.0
2016-May-24 10:33N 49°09' W 123°02'0 0.0
2016-May-24 09:33N 49°09' W 123°02'0 0.0
2016-May-24 08:33N 49°09' W 123°02'0 0.0
2016-May-24 07:33N 49°09' W 123°02'0 0.0
2016-May-24 06:33N 49°09' W 123°02'0 0.0
2016-May-24 05:33N 49°09' W 123°02'0 0.0
2016-May-24 04:33N 49°09' W 123°02'0 0.0
2016-May-24 03:33N 49°09' W 123°02'0 0.0
2016-May-24 02:34N 49°09' W 123°02'0 0.0
2016-May-24 01:33N 49°09' W 123°02'0 0.0
2016-May-24 00:34N 49°09' W 123°02'0 0.0
2016-May-23 23:34N 49°09' W 123°02'0 0.0
2016-May-23 22:33N 49°09' W 123°02'0 0.0
2016-May-23 21:33N 49°09' W 123°02'0 0.0
2016-May-23 20:33N 49°09' W 123°02'0 0.0
2016-May-23 19:33N 49°09' W 123°02'0 0.0
2016-May-23 18:33N 49°09' W 123°02'0 0.0
2016-May-23 17:33N 49°09' W 123°02'0 0.0
2016-May-23 16:33N 49°09' W 123°02'0 0.0
2016-May-23 15:33N 49°09' W 123°02'0 0.0
2016-May-23 14:33N 49°09' W 123°02'0 0.0
2016-May-23 13:33N 49°09' W 123°02'0 0.0
2016-May-23 12:34N 49°09' W 123°02'0 0.0
2016-May-23 11:33N 49°09' W 123°02'0 0.0
2016-May-23 10:34N 49°09' W 123°02'0 0.0
2016-May-23 09:34N 49°09' W 123°02'0 0.0
2016-May-23 08:34N 49°09' W 123°02'0 0.0
2016-May-23 07:33N 49°09' W 123°02'0 0.0
2016-May-23 06:33N 49°09' W 123°02'0 0.0
2016-May-23 05:33N 49°09' W 123°02'0 0.0
2016-May-23 04:33N 49°09' W 123°02'0 0.0
2016-May-23 03:33N 49°09' W 123°02'0 0.0
2016-May-23 02:33N 49°09' W 123°02'0 0.0
2016-May-23 01:33N 49°09' W 123°02'0 0.0
2016-May-23 00:33N 49°09' W 123°02'0 0.0
2016-May-22 23:34N 49°09' W 123°02'0 0.0
2016-May-22 22:33N 49°09' W 123°02'0 0.0
2016-May-22 21:33N 49°09' W 123°02'0 0.0
2016-May-22 20:33N 49°09' W 123°02'0 0.0
2016-May-22 19:33N 49°09' W 123°02'0 0.0
2016-May-22 18:33N 49°09' W 123°02'0 0.0
2016-May-22 17:33N 49°09' W 123°02'0 0.0
2016-May-22 16:33N 49°09' W 123°02'0 0.0
2016-May-22 15:33N 49°09' W 123°02'0 0.0
2016-May-22 14:33N 49°09' W 123°02'7 7.1
2016-May-22 13:34N 49°08' W 123°13'1110.8
2016-May-22 12:33N 49°08' W 123°29'1312.7
2016-May-22 11:33N 49°13' W 123°48'6 6.1
2016-May-22 10:33N 49°10' W 123°56'0 0.0
2016-May-22 09:34N 49°10' W 123°56'3 2.7
2016-May-22 08:33N 49°12' W 123°53'9 9.2
2016-May-22 07:33N 49°12' W 123°39'1110.7
2016-May-22 06:33N 49°08' W 123°24'1111.5
2016-May-22 05:33N 49°07' W 123°07'4 3.6
2016-May-22 04:33N 49°09' W 123°02'0 0.0
2016-May-22 03:33N 49°09' W 123°02'0 0.0
2016-May-22 02:33N 49°09' W 123°02'0 0.0
2016-May-22 01:33N 49°09' W 123°02'0 0.0
2016-May-22 00:33N 49°09' W 123°02'0 0.0
2016-May-21 23:33N 49°09' W 123°02'3 3.1
2016-May-21 22:33N 49°07' W 123°06'8 8.4
2016-May-21 21:33N 49°06' W 123°19'1211.5
2016-May-21 20:33N 49°10' W 123°35'1211.7
2016-May-21 19:34N 49°12' W 123°53'3 2.8
2016-May-21 18:33N 49°10' W 123°56'0 0.0
2016-May-21 17:33N 49°10' W 123°56'0 0.0
2016-May-21 16:33N 49°10' W 123°56'0 0.0
2016-May-21 15:33N 49°10' W 123°56'0 0.0
2016-May-21 14:33N 49°10' W 123°56'0 0.0
2016-May-21 13:33N 49°10' W 123°56'0 0.0
2016-May-21 12:33N 49°10' W 123°56'0 0.0
2016-May-21 11:33N 49°10' W 123°56'5 5.4
2016-May-21 10:34N 49°13' W 123°49'1413.9
2016-May-21 09:34N 49°09' W 123°29'1313.3
2016-May-21 08:33N 49°07' W 123°09'5 5.1
2016-May-21 07:34N 49°09' W 123°02'1 1.3
2016-May-21 06:34N 49°08' W 123°04'1110.6
2016-May-21 05:34N 49°05' W 123°20'1413.7
2016-May-21 04:33N 48°52' W 123°19'1110.9
2016-May-21 03:33N 48°41' W 123°24'0 0.1
2016-May-21 01:33N 48°41' W 123°24'1110.4
2016-May-21 00:32N 48°52' W 123°20'1111.5
2016-May-20 23:34N 49°03' W 123°19'1010.0
2016-May-20 22:33N 49°07' W 123°05'3 2.7
2016-May-20 21:34N 49°09' W 123°02'2 2.0
2016-May-20 20:33N 49°07' W 123°04'10 9.9
2016-May-20 19:34N 49°06' W 123°19'1414.2
2016-May-20 18:34N 49°11' W 123°40'1110.6
2016-May-20 17:33N 49°10' W 123°56'0 0.0
2016-May-20 16:33N 49°10' W 123°56'0 0.0
2016-May-20 15:33N 49°10' W 123°56'0 0.0
2016-May-20 14:33N 49°10' W 123°56'0 0.0
2016-May-20 13:33N 49°10' W 123°56'0 0.0
2016-May-20 12:33N 49°10' W 123°56'0 0.0
2016-May-20 11:33N 49°10' W 123°56'4 4.4
2016-May-20 10:33N 49°13' W 123°51'1413.8
2016-May-20 09:33N 49°09' W 123°30'1313.0
2016-May-20 08:33N 49°07' W 123°11'6 6.0
2016-May-20 07:33N 49°09' W 123°02'1 0.9
2016-May-20 06:33N 49°08' W 123°03'1110.7
2016-May-20 05:34N 49°06' W 123°19'1413.9
2016-May-20 04:34N 48°52' W 123°18'1111.0
2016-May-20 03:33N 48°41' W 123°24'0 0.1
2016-May-20 01:33N 48°42' W 123°24'1010.0
2016-May-20 00:33N 48°51' W 123°21'1312.7
2016-May-19 23:33N 49°04' W 123°19'1211.5
2016-May-19 22:34N 49°08' W 123°03'1 0.8
2016-May-19 21:33N 49°09' W 123°02'4 3.8
2016-May-19 20:33N 49°07' W 123°07'1212.5
2016-May-19 19:33N 49°08' W 123°26'1616.3
2016-May-19 18:34N 49°12' W 123°50'5 4.6
2016-May-19 17:34N 49°10' W 123°56'0 0.1
2016-May-19 16:33N 49°10' W 123°56'0 0.0
2016-May-19 15:33N 49°10' W 123°56'0 0.0
2016-May-19 14:33N 49°10' W 123°56'0 0.0
2016-May-19 13:33N 49°10' W 123°56'0 0.0
2016-May-19 12:33N 49°10' W 123°56'0 0.0
2016-May-19 11:33N 49°10' W 123°56'6 5.7
2016-May-19 10:34N 49°14' W 123°49'1414.0
2016-May-19 09:33N 49°09' W 123°29'1312.7
2016-May-19 08:33N 49°07' W 123°10'6 5.7
2016-May-19 07:33N 49°09' W 123°02'0 0.2
2016-May-19 06:33N 49°09' W 123°02'1010.5
2016-May-19 05:34N 49°06' W 123°18'1211.6
2016-May-19 04:33N 48°55' W 123°17'1111.0
2016-May-19 03:33N 48°44' W 123°23'3 1.3
2016-May-19 01:26N 48°41' W 123°24'1011.9
2016-May-19 00:33N 48°52' W 123°21'1312.7
2016-May-18 23:34N 49°04' W 123°20'1212.0
2016-May-18 22:34N 49°09' W 123°03'0 0.4
2016-May-18 21:33N 49°09' W 123°02'2 2.4
2016-May-18 20:34N 49°07' W 123°05'1010.2
2016-May-18 19:33N 49°06' W 123°20'1313.0
2016-May-18 18:33N 49°11' W 123°39'1111.0
2016-May-18 17:33N 49°10' W 123°56'0 0.1
2016-May-18 16:33N 49°10' W 123°56'0 0.0
2016-May-18 15:33N 49°10' W 123°56'0 0.0
2016-May-18 14:33N 49°10' W 123°56'0 0.0
2016-May-18 13:33N 49°10' W 123°56'0 0.0
2016-May-18 12:33N 49°10' W 123°56'0 0.0
2016-May-18 11:33N 49°10' W 123°56'4 3.9
2016-May-18 10:33N 49°13' W 123°52'1413.8
2016-May-18 09:33N 49°10' W 123°31'1312.9
2016-May-18 08:33N 49°07' W 123°12'6 6.5
2016-May-18 07:33N 49°09' W 123°02'0 0.1
2016-May-18 06:33N 49°09' W 123°02'10 9.6
2016-May-18 05:33N 49°07' W 123°17'1211.8
2016-May-18 04:33N 48°55' W 123°17'1211.6
2016-May-18 03:33N 48°44' W 123°23'3 1.3
2016-May-18 01:26N 48°41' W 123°24'8 9.5
2016-May-18 00:33N 48°49' W 123°21'1211.7
2016-May-17 23:33N 49°01' W 123°20'10 9.8
2016-May-17 22:33N 49°06' W 123°08'4 4.3
2016-May-17 21:33N 49°09' W 123°02'2 2.1
2016-May-17 20:34N 49°07' W 123°05'1010.2
2016-May-17 19:34N 49°06' W 123°20'1413.7
2016-May-17 18:33N 49°11' W 123°39'1110.9
2016-May-17 17:33N 49°10' W 123°56'0 0.0
2016-May-17 16:32N 49°10' W 123°56'0 0.0
2016-May-17 15:33N 49°10' W 123°56'0 0.0
2016-May-17 14:33N 49°10' W 123°56'0 0.0
2016-May-17 13:33N 49°10' W 123°56'0 0.0
2016-May-17 12:33N 49°10' W 123°56'0 0.0
2016-May-17 11:33N 49°10' W 123°56'4 3.7
2016-May-17 10:33N 49°13' W 123°52'1312.9
2016-May-17 09:34N 49°10' W 123°33'1313.3
2016-May-17 08:34N 49°08' W 123°13'7 7.1
2016-May-17 07:34N 49°09' W 123°02'0 0.2
2016-May-17 06:33N 49°09' W 123°02'1010.2
2016-May-17 05:34N 49°06' W 123°18'1414.2
2016-May-17 04:34N 48°52' W 123°18'1211.5
2016-May-17 03:33N 48°41' W 123°24'0 0.0
2016-May-17 01:27N 48°41' W 123°24'1011.3
2016-May-17 00:33N 48°51' W 123°21'1211.9
2016-May-16 23:33N 49°03' W 123°21'1313.1
2016-May-16 22:34N 49°09' W 123°03'0 0.4
2016-May-16 21:34N 49°09' W 123°02'0 0.0
2016-May-16 20:33N 49°09' W 123°02'0 0.0
2016-May-16 19:33N 49°09' W 123°02'0 0.0
2016-May-16 18:33N 49°09' W 123°02'0 0.0
2016-May-16 17:33N 49°09' W 123°02'0 0.0
2016-May-16 16:33N 49°09' W 123°02'0 0.0
2016-May-16 15:33N 49°09' W 123°02'0 0.0
2016-May-16 14:33N 49°09' W 123°02'0 0.0
2016-May-16 13:33N 49°09' W 123°02'0 0.0
2016-May-16 12:33N 49°09' W 123°02'0 0.0
2016-May-16 11:33N 49°09' W 123°02'0 0.0
2016-May-16 10:33N 49°09' W 123°02'0 0.0
2016-May-16 09:33N 49°09' W 123°02'0 0.0
2016-May-16 08:33N 49°09' W 123°02'0 0.0
2016-May-16 07:33N 49°09' W 123°02'0 0.0
2016-May-16 06:33N 49°09' W 123°02'0 0.0
2016-May-16 05:33N 49°09' W 123°02'0 0.0
2016-May-16 04:33N 49°09' W 123°02'0 0.0
2016-May-16 03:33N 49°09' W 123°02'0 0.0
2016-May-16 02:33N 49°09' W 123°02'0 0.0
2016-May-16 01:33N 49°09' W 123°02'  
Track history (hours):
 
Tides and Currents Weather Stations Pressure Air Temp Water Temp Dewpoint Dewpoint Depression Visibility Wind Speed Wind Dir Waves Ship Positions

Carrier Princess

Last reported at 2016-May-26 00:33 UTC. Time now 2016-May-26 00:43 UTC.
Position N 48°49' W 123°21'.

Length 112 m; draft 3 m.

Type: Cargo ship. MMSI: 316003656.

Date/timePositionNaut miles runAvg speedWind from/ knotsBaromVisibWave heightAir tempDewpointWater temp
2016-May-26 00:33N 48°49' W 123°21'1212.0
2016-May-25 23:33N 49°01' W 123°19'1211.9
2016-May-25 22:33N 49°07' W 123°04'2 1.9
2016-May-25 21:33N 49°09' W 123°02'1 0.9
2016-May-25 20:33N 49°08' W 123°03'9 8.9
2016-May-25 19:33N 49°07' W 123°17'1313.2
2016-May-25 18:34N 49°10' W 123°36'1312.6
2016-May-25 17:33N 49°10' W 123°56'0 0.1
2016-May-25 16:16N 49°10' W 123°56'0 0.0
2016-May-25 14:20N 49°10' W 123°56'0 0.0
2016-May-25 12:32N 49°10' W 123°56'4 1.9
2016-May-25 10:33N 49°13' W 123°52'1313.4
2016-May-25 09:33N 49°10' W 123°32'1212.2
2016-May-25 08:33N 49°08' W 123°13'7 7.3
2016-May-25 07:33N 49°09' W 123°02'0 0.0
2016-May-25 06:33N 49°09' W 123°02'9 9.1
2016-May-25 05:33N 49°07' W 123°16'1111.1
2016-May-25 04:33N 48°56' W 123°18'1211.9
2016-May-25 03:33N 48°45' W 123°23'4 1.6
2016-May-25 01:16N 48°41' W 123°24'810.9
2016-May-25 00:33N 48°49' W 123°21'1111.3
2016-May-24 23:33N 48°60' W 123°19'1010.3
2016-May-24 22:34N 49°07' W 123°07'4 3.9
2016-May-24 21:33N 49°09' W 123°02'0 0.0
2016-May-24 20:33N 49°09' W 123°02'0 0.0
2016-May-24 19:33N 49°09' W 123°02'0 0.0
2016-May-24 18:34N 49°09' W 123°02'0 0.0
2016-May-24 17:33N 49°09' W 123°02'0 0.0
2016-May-24 16:33N 49°09' W 123°02'0 0.0
2016-May-24 15:33N 49°09' W 123°02'0 0.0
2016-May-24 14:34N 49°09' W 123°02'0 0.0
2016-May-24 13:33N 49°09' W 123°02'0 0.0
2016-May-24 12:33N 49°09' W 123°02'0 0.0
2016-May-24 11:34N 49°09' W 123°02'0 0.0
2016-May-24 10:33N 49°09' W 123°02'0 0.0
2016-May-24 09:33N 49°09' W 123°02'0 0.0
2016-May-24 08:33N 49°09' W 123°02'0 0.0
2016-May-24 07:33N 49°09' W 123°02'0 0.0
2016-May-24 06:33N 49°09' W 123°02'0 0.0
2016-May-24 05:33N 49°09' W 123°02'0 0.0
2016-May-24 04:33N 49°09' W 123°02'0 0.0
2016-May-24 03:33N 49°09' W 123°02'0 0.0
2016-May-24 02:34N 49°09' W 123°02'0 0.0
2016-May-24 01:33N 49°09' W 123°02'0 0.0
2016-May-24 00:34N 49°09' W 123°02'0 0.0
2016-May-23 23:34N 49°09' W 123°02'0 0.0
2016-May-23 22:33N 49°09' W 123°02'0 0.0
2016-May-23 21:33N 49°09' W 123°02'0 0.0
2016-May-23 20:33N 49°09' W 123°02'0 0.0
2016-May-23 19:33N 49°09' W 123°02'0 0.0
2016-May-23 18:33N 49°09' W 123°02'0 0.0
2016-May-23 17:33N 49°09' W 123°02'0 0.0
2016-May-23 16:33N 49°09' W 123°02'0 0.0
2016-May-23 15:33N 49°09' W 123°02'0 0.0
2016-May-23 14:33N 49°09' W 123°02'0 0.0
2016-May-23 13:33N 49°09' W 123°02'0 0.0
2016-May-23 12:34N 49°09' W 123°02'0 0.0
2016-May-23 11:33N 49°09' W 123°02'0 0.0
2016-May-23 10:34N 49°09' W 123°02'0 0.0
2016-May-23 09:34N 49°09' W 123°02'0 0.0
2016-May-23 08:34N 49°09' W 123°02'0 0.0
2016-May-23 07:33N 49°09' W 123°02'0 0.0
2016-May-23 06:33N 49°09' W 123°02'0 0.0
2016-May-23 05:33N 49°09' W 123°02'0 0.0
2016-May-23 04:33N 49°09' W 123°02'0 0.0
2016-May-23 03:33N 49°09' W 123°02'0 0.0
2016-May-23 02:33N 49°09' W 123°02'0 0.0
2016-May-23 01:33N 49°09' W 123°02'0 0.0
2016-May-23 00:33N 49°09' W 123°02'0 0.0
2016-May-22 23:34N 49°09' W 123°02'0 0.0
2016-May-22 22:33N 49°09' W 123°02'0 0.0
2016-May-22 21:33N 49°09' W 123°02'0 0.0
2016-May-22 20:33N 49°09' W 123°02'0 0.0
2016-May-22 19:33N 49°09' W 123°02'0 0.0
2016-May-22 18:33N 49°09' W 123°02'0 0.0
2016-May-22 17:33N 49°09' W 123°02'0 0.0
2016-May-22 16:33N 49°09' W 123°02'0 0.0
2016-May-22 15:33N 49°09' W 123°02'0 0.0
2016-May-22 14:33N 49°09' W 123°02'7 7.1
2016-May-22 13:34N 49°08' W 123°13'1110.8
2016-May-22 12:33N 49°08' W 123°29'1312.7
2016-May-22 11:33N 49°13' W 123°48'6 6.1
2016-May-22 10:33N 49°10' W 123°56'0 0.0
2016-May-22 09:34N 49°10' W 123°56'3 2.7
2016-May-22 08:33N 49°12' W 123°53'9 9.2
2016-May-22 07:33N 49°12' W 123°39'1110.7
2016-May-22 06:33N 49°08' W 123°24'1111.5
2016-May-22 05:33N 49°07' W 123°07'4 3.6
2016-May-22 04:33N 49°09' W 123°02'0 0.0
2016-May-22 03:33N 49°09' W 123°02'0 0.0
2016-May-22 02:33N 49°09' W 123°02'0 0.0
2016-May-22 01:33N 49°09' W 123°02'0 0.0
2016-May-22 00:33N 49°09' W 123°02'0 0.0
2016-May-21 23:33N 49°09' W 123°02'3 3.1
2016-May-21 22:33N 49°07' W 123°06'8 8.4
2016-May-21 21:33N 49°06' W 123°19'1211.5
2016-May-21 20:33N 49°10' W 123°35'1211.7
2016-May-21 19:34N 49°12' W 123°53'3 2.8
2016-May-21 18:33N 49°10' W 123°56'0 0.0
2016-May-21 17:33N 49°10' W 123°56'0 0.0
2016-May-21 16:33N 49°10' W 123°56'0 0.0
2016-May-21 15:33N 49°10' W 123°56'0 0.0
2016-May-21 14:33N 49°10' W 123°56'0 0.0
2016-May-21 13:33N 49°10' W 123°56'0 0.0
2016-May-21 12:33N 49°10' W 123°56'0 0.0
2016-May-21 11:33N 49°10' W 123°56'5 5.4
2016-May-21 10:34N 49°13' W 123°49'1413.9
2016-May-21 09:34N 49°09' W 123°29'1313.3
2016-May-21 08:33N 49°07' W 123°09'5 5.1
2016-May-21 07:34N 49°09' W 123°02'1 1.3
2016-May-21 06:34N 49°08' W 123°04'1110.6
2016-May-21 05:34N 49°05' W 123°20'1413.7
2016-May-21 04:33N 48°52' W 123°19'1110.9
2016-May-21 03:33N 48°41' W 123°24'0 0.1
2016-May-21 01:33N 48°41' W 123°24'1110.4
2016-May-21 00:32N 48°52' W 123°20'1111.5
2016-May-20 23:34N 49°03' W 123°19'1010.0
2016-May-20 22:33N 49°07' W 123°05'3 2.7
2016-May-20 21:34N 49°09' W 123°02'2 2.0
2016-May-20 20:33N 49°07' W 123°04'10 9.9
2016-May-20 19:34N 49°06' W 123°19'1414.2
2016-May-20 18:34N 49°11' W 123°40'1110.6
2016-May-20 17:33N 49°10' W 123°56'0 0.0
2016-May-20 16:33N 49°10' W 123°56'0 0.0
2016-May-20 15:33N 49°10' W 123°56'0 0.0
2016-May-20 14:33N 49°10' W 123°56'0 0.0
2016-May-20 13:33N 49°10' W 123°56'0 0.0
2016-May-20 12:33N 49°10' W 123°56'0 0.0
2016-May-20 11:33N 49°10' W 123°56'4 4.4
2016-May-20 10:33N 49°13' W 123°51'1413.8
2016-May-20 09:33N 49°09' W 123°30'1313.0
2016-May-20 08:33N 49°07' W 123°11'6 6.0
2016-May-20 07:33N 49°09' W 123°02'1 0.9
2016-May-20 06:33N 49°08' W 123°03'1110.7
2016-May-20 05:34N 49°06' W 123°19'1413.9
2016-May-20 04:34N 48°52' W 123°18'1111.0
2016-May-20 03:33N 48°41' W 123°24'0 0.1
2016-May-20 01:33N 48°42' W 123°24'1010.0
2016-May-20 00:33N 48°51' W 123°21'1312.7
2016-May-19 23:33N 49°04' W 123°19'1211.5
2016-May-19 22:34N 49°08' W 123°03'1 0.8
2016-May-19 21:33N 49°09' W 123°02'4 3.8
2016-May-19 20:33N 49°07' W 123°07'1212.5
2016-May-19 19:33N 49°08' W 123°26'1616.3
2016-May-19 18:34N 49°12' W 123°50'5 4.6
2016-May-19 17:34N 49°10' W 123°56'0 0.1
2016-May-19 16:33N 49°10' W 123°56'0 0.0
2016-May-19 15:33N 49°10' W 123°56'0 0.0
2016-May-19 14:33N 49°10' W 123°56'0 0.0
2016-May-19 13:33N 49°10' W 123°56'0 0.0
2016-May-19 12:33N 49°10' W 123°56'0 0.0
2016-May-19 11:33N 49°10' W 123°56'6 5.7
2016-May-19 10:34N 49°14' W 123°49'1414.0
2016-May-19 09:33N 49°09' W 123°29'1312.7
2016-May-19 08:33N 49°07' W 123°10'6 5.7
2016-May-19 07:33N 49°09' W 123°02'0 0.2
2016-May-19 06:33N 49°09' W 123°02'1010.5
2016-May-19 05:34N 49°06' W 123°18'1211.6
2016-May-19 04:33N 48°55' W 123°17'1111.0
2016-May-19 03:33N 48°44' W 123°23'3 1.3
2016-May-19 01:26N 48°41' W 123°24'1011.9
2016-May-19 00:33N 48°52' W 123°21'1312.7
2016-May-18 23:34N 49°04' W 123°20'1212.0
2016-May-18 22:34N 49°09' W 123°03'0 0.4
2016-May-18 21:33N 49°09' W 123°02'2 2.4
2016-May-18 20:34N 49°07' W 123°05'1010.2
2016-May-18 19:33N 49°06' W 123°20'1313.0
2016-May-18 18:33N 49°11' W 123°39'1111.0
2016-May-18 17:33N 49°10' W 123°56'0 0.1
2016-May-18 16:33N 49°10' W 123°56'0 0.0
2016-May-18 15:33N 49°10' W 123°56'0 0.0
2016-May-18 14:33N 49°10' W 123°56'0 0.0
2016-May-18 13:33N 49°10' W 123°56'0 0.0
2016-May-18 12:33N 49°10' W 123°56'0 0.0
2016-May-18 11:33N 49°10' W 123°56'4 3.9
2016-May-18 10:33N 49°13' W 123°52'1413.8
2016-May-18 09:33N 49°10' W 123°31'1312.9
2016-May-18 08:33N 49°07' W 123°12'6 6.5
2016-May-18 07:33N 49°09' W 123°02'0 0.1
2016-May-18 06:33N 49°09' W 123°02'10 9.6
2016-May-18 05:33N 49°07' W 123°17'1211.8
2016-May-18 04:33N 48°55' W 123°17'1211.6
2016-May-18 03:33N 48°44' W 123°23'3 1.3
2016-May-18 01:26N 48°41' W 123°24'8 9.5
2016-May-18 00:33N 48°49' W 123°21'1211.7
2016-May-17 23:33N 49°01' W 123°20'10 9.8
2016-May-17 22:33N 49°06' W 123°08'4 4.3
2016-May-17 21:33N 49°09' W 123°02'2 2.1
2016-May-17 20:34N 49°07' W 123°05'1010.2
2016-May-17 19:34N 49°06' W 123°20'1413.7
2016-May-17 18:33N 49°11' W 123°39'1110.9
2016-May-17 17:33N 49°10' W 123°56'0 0.0
2016-May-17 16:32N 49°10' W 123°56'0 0.0
2016-May-17 15:33N 49°10' W 123°56'0 0.0
2016-May-17 14:33N 49°10' W 123°56'0 0.0
2016-May-17 13:33N 49°10' W 123°56'0 0.0
2016-May-17 12:33N 49°10' W 123°56'0 0.0
2016-May-17 11:33N 49°10' W 123°56'4 3.7
2016-May-17 10:33N 49°13' W 123°52'1312.9
2016-May-17 09:34N 49°10' W 123°33'1313.3
2016-May-17 08:34N 49°08' W 123°13'7 7.1
2016-May-17 07:34N 49°09' W 123°02'0 0.2
2016-May-17 06:33N 49°09' W 123°02'1010.2
2016-May-17 05:34N 49°06' W 123°18'1414.2
2016-May-17 04:34N 48°52' W 123°18'1211.5
2016-May-17 03:33N 48°41' W 123°24'0 0.0
2016-May-17 01:27N 48°41' W 123°24'1011.3
2016-May-17 00:33N 48°51' W 123°21'1211.9
2016-May-16 23:33N 49°03' W 123°21'1313.1
2016-May-16 22:34N 49°09' W 123°03'0 0.4
2016-May-16 21:34N 49°09' W 123°02'0 0.0
2016-May-16 20:33N 49°09' W 123°02'0 0.0
2016-May-16 19:33N 49°09' W 123°02'0 0.0
2016-May-16 18:33N 49°09' W 123°02'0 0.0
2016-May-16 17:33N 49°09' W 123°02'0 0.0
2016-May-16 16:33N 49°09' W 123°02'0 0.0
2016-May-16 15:33N 49°09' W 123°02'0 0.0
2016-May-16 14:33N 49°09' W 123°02'0 0.0
2016-May-16 13:33N 49°09' W 123°02'0 0.0
2016-May-16 12:33N 49°09' W 123°02'0 0.0
2016-May-16 11:33N 49°09' W 123°02'0 0.0
2016-May-16 10:33N 49°09' W 123°02'0 0.0
2016-May-16 09:33N 49°09' W 123°02'0 0.0
2016-May-16 08:33N 49°09' W 123°02'0 0.0
2016-May-16 07:33N 49°09' W 123°02'0 0.0
2016-May-16 06:33N 49°09' W 123°02'0 0.0
2016-May-16 05:33N 49°09' W 123°02'0 0.0
2016-May-16 04:33N 49°09' W 123°02'0 0.0
2016-May-16 03:33N 49°09' W 123°02'0 0.0
2016-May-16 02:33N 49°09' W 123°02'0 0.0
2016-May-16 01:33N 49°09' W 123°02'  

Dump ship's entire track history